Austin (LCRA Redbud)'s Hourly Summary for Wednesday, April 19, 2017
Hour Temp
(f)
RH
(%)
Solar Rad.
(MJ/m2)
Rainfall
(in)
Wind
(mph)
4/19/2017 12:00 AM 70 84 0 0 0.83
4/19/2017 1:00 AM 69 85 0 0 1.21
4/19/2017 2:00 AM 69 86 0 0 0.77
4/19/2017 3:00 AM 69 87 0 0 1.27
4/19/2017 4:00 AM 69 89 0 0 0.64
4/19/2017 5:00 AM 69 89 0 0 1.35
4/19/2017 6:00 AM 68 88 0 0 1.1
4/19/2017 7:00 AM 68 88 0 0 1.13
4/19/2017 8:00 AM 69 89 0.02 0 1.12
4/19/2017 9:00 AM 69 87 0.3 0 1.21
4/19/2017 10:00 AM 72 74 0.95 0 2.27
4/19/2017 11:00 AM 73 69 1.22 0 3.21
4/19/2017 12:00 PM 76 63 2.31 0 2.62
4/19/2017 1:00 PM 80 56 3.4 0 3.42
4/19/2017 2:00 PM 81 51 2.81 0 3.33
4/19/2017 3:00 PM 82 51 1.82 0 2.58
4/19/2017 4:00 PM 83 50 1.88 0 2.94
4/19/2017 5:00 PM 82 52 1.19 0 3.36
4/19/2017 6:00 PM 82 53 1.13 0 3.12
4/19/2017 7:00 PM 82 55 0.86 0 3.68
4/19/2017 8:00 PM 79 59 0.16 0 3.16
4/19/2017 9:00 PM 77 65 0 0 2.21
4/19/2017 10:00 PM 75 71 0 0 2.23
4/19/2017 11:00 PM 73 76 0 0 1.29
Data Summary 74 71 18.05 0.00 2.09